createdAt,value
2018-01-12T00:00:35.546Z,3.00
2018-01-12T00:03:01.885Z,3.10
2018-01-12T00:05:28.240Z,3.00
2018-01-12T00:07:54.578Z,3.10
2018-01-12T00:10:20.922Z,3.00
2018-01-12T00:12:47.282Z,2.90
2018-01-12T00:15:14.360Z,2.80
2018-01-12T00:17:40.699Z,2.80
2018-01-12T00:20:07.024Z,2.90
2018-01-12T00:22:34.190Z,2.80
2018-01-12T00:25:00.554Z,2.80
2018-01-12T00:27:26.903Z,2.90
2018-01-12T00:29:54.017Z,2.90
2018-01-12T00:32:20.343Z,2.90
2018-01-12T00:34:46.703Z,2.90
2018-01-12T00:37:13.807Z,2.90
2018-01-12T00:39:40.206Z,2.90
2018-01-12T00:42:07.461Z,2.80
2018-01-12T00:44:33.838Z,2.80
2018-01-12T00:47:00.242Z,2.80
2018-01-12T00:49:26.695Z,2.80
2018-01-12T00:51:53.095Z,2.80
2018-01-12T00:54:19.477Z,2.90
2018-01-12T00:56:45.867Z,2.90
2018-01-12T00:59:12.244Z,2.80
2018-01-12T01:01:38.611Z,2.70
2018-01-12T01:04:05.712Z,2.70
2018-01-12T01:06:32.108Z,2.70
2018-01-12T01:08:58.459Z,2.60
2018-01-12T01:11:24.817Z,2.60
2018-01-12T01:13:51.162Z,2.60
2018-01-12T01:16:17.489Z,2.60
2018-01-12T01:18:45.574Z,2.70
2018-01-12T01:21:12.644Z,2.60
2018-01-12T01:23:39.058Z,2.60
2018-01-12T01:26:06.362Z,2.70
2018-01-12T01:28:32.690Z,2.70
2018-01-12T01:30:59.035Z,2.60
2018-01-12T01:33:25.395Z,2.60
2018-01-12T01:35:51.719Z,2.70
2018-01-12T01:38:18.071Z,2.80
2018-01-12T01:40:45.151Z,2.80
2018-01-12T01:43:11.502Z,2.80
2018-01-12T01:45:38.871Z,2.80
2018-01-12T01:48:05.219Z,2.80
2018-01-12T01:50:31.598Z,2.80
2018-01-12T01:52:57.964Z,2.80
2018-01-12T01:55:24.310Z,2.80
2018-01-12T01:57:50.638Z,2.80
2018-01-12T02:00:17.979Z,2.70
2018-01-12T02:02:44.326Z,2.80
2018-01-12T02:05:10.691Z,2.70
2018-01-12T02:07:37.763Z,2.80
2018-01-12T02:10:04.151Z,2.70
2018-01-12T02:12:30.508Z,2.70
2018-01-12T02:14:57.628Z,2.50
2018-01-12T02:17:24.783Z,2.50
2018-01-12T02:19:51.154Z,2.50
2018-01-12T02:22:17.482Z,2.60
2018-01-12T02:24:43.839Z,2.60
2018-01-12T02:27:10.199Z,2.60
2018-01-12T02:29:36.544Z,2.70
2018-01-12T02:32:02.880Z,2.70
2018-01-12T02:34:29.989Z,2.70
2018-01-12T02:36:56.355Z,2.70
2018-01-12T02:39:22.704Z,2.70
2018-01-12T02:41:49.814Z,2.80
2018-01-12T02:44:16.154Z,2.70
2018-01-12T02:46:42.487Z,2.80
2018-01-12T02:49:08.867Z,2.70
2018-01-12T02:51:35.220Z,2.60
2018-01-12T02:54:01.562Z,2.70
2018-01-12T02:56:27.915Z,2.70
2018-01-12T02:58:54.255Z,2.80
2018-01-12T03:01:21.349Z,2.80
2018-01-12T03:03:47.707Z,2.80
2018-01-12T03:06:14.041Z,2.80
2018-01-12T03:08:40.390Z,2.80
2018-01-12T03:11:07.547Z,2.90
2018-01-12T03:13:34.674Z,2.90
2018-01-12T03:16:01.244Z,2.90
2018-01-12T03:18:27.551Z,2.80
2018-01-12T03:20:53.938Z,2.80
2018-01-12T03:23:20.302Z,2.60
2018-01-12T03:25:46.651Z,2.70
2018-01-12T03:28:13.013Z,2.70
2018-01-12T03:30:39.351Z,2.80
2018-01-12T03:33:05.702Z,2.80
2018-01-12T03:35:32.062Z,2.80
2018-01-12T03:37:58.415Z,2.80
2018-01-12T03:40:25.495Z,2.80
2018-01-12T03:42:51.819Z,2.80
2018-01-12T03:45:18.190Z,2.80
2018-01-12T03:47:44.519Z,2.80
2018-01-12T03:50:10.869Z,2.90
2018-01-12T03:55:07.279Z,2.80
2018-01-12T03:57:33.643Z,2.80
2018-01-12T03:59:59.999Z,2.80
2018-01-12T04:02:27.112Z,2.80
2018-01-12T04:04:53.462Z,2.80
2018-01-12T04:07:19.822Z,2.80
2018-01-12T04:09:46.891Z,2.60
2018-01-12T04:12:13.235Z,2.60
2018-01-12T04:14:39.578Z,2.70
2018-01-12T04:17:05.921Z,2.80
2018-01-12T04:19:32.258Z,2.80
2018-01-12T04:21:58.615Z,2.80
2018-01-12T04:24:25.001Z,3.00
2018-01-12T04:26:51.334Z,2.90
2018-01-12T04:29:17.662Z,2.90
2018-01-12T04:31:45.034Z,2.90
2018-01-12T04:34:11.376Z,2.90
2018-01-12T04:36:37.722Z,2.90
2018-01-12T04:39:04.114Z,2.90
2018-01-12T04:41:30.466Z,2.90
2018-01-12T04:43:56.806Z,2.90
2018-01-12T04:46:23.183Z,3.00
2018-01-12T04:48:49.511Z,3.00
2018-01-12T04:51:16.436Z,2.90
2018-01-12T04:53:43.507Z,2.80
2018-01-12T04:56:09.871Z,2.80
2018-01-12T04:58:36.207Z,2.90
2018-01-12T05:01:02.574Z,2.90
2018-01-12T05:03:29.656Z,3.00
2018-01-12T05:05:56.007Z,2.90
2018-01-12T05:08:22.333Z,3.00
2018-01-12T05:10:48.687Z,3.00
2018-01-12T05:13:15.023Z,3.10
2018-01-12T05:15:41.357Z,3.00
2018-01-12T05:18:09.229Z,3.00
2018-01-12T05:20:35.550Z,3.00
2018-01-12T05:23:01.892Z,3.10
2018-01-12T05:25:28.227Z,3.10
2018-01-12T05:27:54.626Z,3.00
2018-01-12T05:30:21.388Z,2.90
2018-01-12T05:32:47.719Z,3.00
2018-01-12T05:35:14.054Z,3.00
2018-01-12T05:37:40.450Z,2.90
2018-01-12T05:40:06.848Z,2.90
2018-01-12T05:42:33.963Z,2.80
2018-01-12T05:45:01.105Z,2.80
2018-01-12T05:47:27.442Z,2.90
2018-01-12T05:49:53.774Z,3.00
2018-01-12T05:52:20.132Z,3.10
2018-01-12T05:54:47.208Z,3.20
2018-01-12T05:57:13.567Z,3.20
2018-01-12T05:59:39.911Z,3.30
2018-01-12T06:02:18.511Z,3.20
2018-01-12T06:04:56.979Z,3.10
2018-01-12T06:07:24.071Z,3.10
2018-01-12T06:09:50.423Z,3.00
2018-01-12T06:12:16.764Z,3.10
2018-01-12T06:14:43.110Z,3.10
2018-01-12T06:17:10.194Z,3.00
2018-01-12T06:19:36.563Z,2.90
2018-01-12T06:22:02.886Z,2.80
2018-01-12T06:24:29.222Z,2.80
2018-01-12T06:26:55.561Z,2.80
2018-01-12T06:29:21.886Z,2.80
2018-01-12T06:31:48.227Z,2.90
2018-01-12T06:34:14.581Z,3.00
2018-01-12T06:36:41.642Z,2.90
2018-01-12T06:39:07.977Z,2.90
2018-01-12T06:41:34.311Z,2.90
2018-01-12T06:44:00.731Z,3.00
2018-01-12T06:46:27.834Z,2.90
2018-01-12T06:48:54.175Z,2.90
2018-01-12T06:51:20.522Z,3.00
2018-01-12T06:53:46.844Z,3.10
2018-01-12T06:56:13.205Z,3.20
2018-01-12T06:58:40.289Z,3.20
2018-01-12T07:01:06.650Z,3.20
2018-01-12T07:03:33.006Z,3.20
2018-01-12T07:06:00.080Z,3.20
2018-01-12T07:08:26.421Z,3.20
2018-01-12T07:10:52.771Z,3.20
2018-01-12T07:13:19.094Z,3.30
2018-01-12T07:15:45.433Z,3.40
2018-01-12T07:18:11.779Z,3.30
2018-01-12T07:20:50.395Z,3.40
2018-01-12T07:23:28.903Z,3.30
2018-01-12T07:25:55.981Z,3.40
2018-01-12T07:28:22.317Z,3.40
2018-01-12T07:30:48.676Z,3.40
2018-01-12T07:33:15.027Z,3.40
2018-01-12T07:35:41.367Z,3.30
2018-01-12T07:38:07.731Z,3.30
2018-01-12T07:40:34.059Z,3.20
2018-01-12T07:43:00.407Z,3.20
2018-01-12T07:45:26.755Z,3.10
2018-01-12T07:47:53.102Z,3.10
2018-01-12T07:50:19.447Z,3.10
2018-01-12T07:52:51.886Z,3.20
2018-01-12T07:55:18.245Z,3.20
2018-01-12T07:57:44.627Z,3.10
2018-01-12T08:00:11.171Z,3.10
2018-01-12T08:02:43.630Z,3.00
2018-01-12T08:05:10.263Z,2.90
2018-01-12T08:07:37.387Z,3.00
2018-01-12T08:10:03.739Z,3.10
2018-01-12T08:12:30.815Z,2.90
2018-01-12T08:14:57.249Z,2.90
2018-01-12T08:17:23.586Z,2.90
2018-01-12T08:19:49.955Z,2.80
2018-01-12T08:22:16.323Z,2.90
2018-01-12T08:24:43.407Z,2.80
2018-01-12T08:27:09.777Z,2.80
2018-01-12T08:29:37.160Z,2.90
2018-01-12T08:32:03.508Z,2.80
2018-01-12T08:34:29.871Z,2.90
2018-01-12T08:36:56.198Z,3.00
2018-01-12T08:39:22.550Z,3.00
2018-01-12T08:41:49.634Z,3.20
2018-01-12T08:44:16.930Z,3.20
2018-01-12T08:46:43.251Z,3.20
2018-01-12T08:49:09.596Z,3.30
2018-01-12T08:51:35.923Z,3.20
2018-01-12T08:54:02.254Z,3.30
2018-01-12T08:56:28.610Z,3.30
2018-01-12T08:58:54.958Z,3.30
2018-01-12T09:01:22.052Z,3.40
2018-01-12T09:03:48.386Z,3.30
2018-01-12T09:06:14.743Z,3.30
2018-01-12T09:08:41.074Z,3.30
2018-01-12T09:11:07.463Z,3.30
2018-01-12T09:13:46.022Z,3.30
2018-01-12T09:16:12.450Z,3.40
2018-01-12T09:18:51.183Z,3.40
2018-01-12T09:21:24.291Z,3.50
2018-01-12T09:23:55.731Z,3.50
2018-01-12T09:26:23.562Z,3.40
2018-01-12T09:28:49.918Z,3.40
2018-01-12T09:31:16.331Z,3.40
2018-01-12T09:33:46.826Z,3.40
2018-01-12T09:36:13.203Z,3.60
2018-01-12T09:38:51.595Z,3.70
2018-01-12T09:41:17.943Z,3.70
2018-01-12T09:43:44.279Z,3.80
2018-01-12T09:46:10.602Z,3.90
2018-01-12T09:48:36.987Z,3.90
2018-01-12T09:51:03.384Z,3.90
2018-01-12T09:53:29.744Z,4.00
2018-01-12T09:55:56.838Z,4.10
2018-01-12T09:58:23.314Z,4.10
2018-01-12T10:01:05.385Z,4.20
2018-01-12T10:03:31.750Z,4.20
2018-01-12T10:05:58.856Z,4.50
2018-01-12T10:08:25.288Z,4.50
2018-01-12T10:10:51.653Z,4.40
2018-01-12T10:13:18.019Z,4.40
2018-01-12T10:15:44.361Z,4.40
2018-01-12T10:18:11.774Z,4.50
2018-01-12T10:20:38.949Z,4.60
2018-01-12T10:23:05.310Z,4.60
2018-01-12T10:25:31.678Z,4.80
2018-01-12T10:27:58.027Z,4.90
2018-01-12T10:30:32.202Z,4.80
2018-01-12T10:33:07.464Z,4.80
2018-01-12T10:35:33.850Z,4.70
2018-01-12T10:38:00.194Z,4.80
2018-01-12T10:40:48.659Z,4.70
2018-01-12T10:43:14.981Z,4.90
2018-01-12T10:45:53.659Z,5.10
2018-01-12T10:48:31.274Z,5.10
2018-01-12T10:50:57.693Z,4.90
2018-01-12T10:53:24.066Z,4.90
2018-01-12T10:55:50.410Z,4.90
2018-01-12T10:58:16.905Z,4.90
2018-01-12T11:00:43.693Z,5.10
2018-01-12T11:03:10.897Z,5.50
2018-01-12T11:05:37.254Z,5.50
2018-01-12T11:08:03.583Z,5.50
2018-01-12T11:10:29.945Z,5.40
2018-01-12T11:12:56.281Z,5.40
2018-01-12T11:15:22.632Z,5.30
2018-01-12T11:17:49.003Z,5.30
2018-01-12T11:20:15.388Z,5.40
2018-01-12T11:22:42.524Z,5.80
2018-01-12T11:25:09.902Z,5.70
2018-01-12T11:27:36.253Z,6.00
2018-01-12T11:30:02.626Z,6.40
2018-01-12T11:32:28.962Z,6.60
2018-01-12T11:34:55.295Z,6.90
2018-01-12T11:37:21.686Z,7.10
2018-01-12T11:39:48.062Z,7.20
2018-01-12T11:42:14.435Z,7.00
2018-01-12T11:44:40.802Z,6.90
2018-01-12T11:47:07.169Z,6.90
2018-01-12T11:49:34.259Z,7.00
2018-01-12T11:52:00.618Z,7.00
2018-01-12T11:54:26.962Z,7.00
2018-01-12T11:56:53.374Z,6.90
2018-01-12T11:59:19.718Z,6.90
2018-01-12T12:01:46.094Z,7.30
2018-01-12T12:04:13.174Z,7.50
2018-01-12T12:06:39.503Z,7.50
2018-01-12T12:09:05.962Z,7.50
2018-01-12T12:11:32.481Z,7.50
2018-01-12T12:13:58.815Z,7.40
2018-01-12T12:16:25.163Z,7.20
2018-01-12T12:18:52.286Z,6.70
2018-01-12T12:21:18.646Z,6.70
2018-01-12T12:23:44.994Z,6.60
2018-01-12T12:26:12.642Z,6.20
2018-01-12T12:28:38.966Z,6.20
2018-01-12T12:31:06.310Z,6.20
2018-01-12T12:33:32.678Z,6.10
2018-01-12T12:35:59.042Z,6.10
2018-01-12T12:38:25.553Z,6.30
2018-01-12T12:40:52.651Z,7.10
2018-01-12T12:43:19.019Z,7.10
2018-01-12T12:45:45.357Z,7.70
2018-01-12T12:48:11.793Z,8.20
2018-01-12T12:50:40.255Z,10.00
2018-01-12T12:53:07.420Z,10.00
2018-01-12T12:55:34.545Z,11.20
2018-01-12T12:58:00.858Z,11.10
2018-01-12T13:00:27.223Z,11.20
2018-01-12T13:02:53.557Z,11.30
2018-01-12T13:05:20.631Z,11.00
2018-01-12T13:07:47.855Z,10.80
2018-01-12T13:10:15.679Z,10.50
2018-01-12T13:12:42.034Z,10.60
2018-01-12T13:15:08.429Z,10.30
2018-01-12T13:17:34.790Z,9.90
2018-01-12T13:20:01.638Z,9.40
2018-01-12T13:22:28.022Z,9.00
2018-01-12T13:24:54.501Z,8.80
2018-01-12T13:27:20.847Z,8.50
2018-01-12T13:29:47.174Z,8.30
2018-01-12T13:32:13.539Z,8.00
2018-01-12T13:34:41.634Z,7.60
2018-01-12T13:37:08.019Z,7.50
2018-01-12T13:39:34.724Z,7.30
2018-01-12T13:42:02.202Z,7.10
2018-01-12T13:44:28.534Z,7.10
2018-01-12T13:46:54.871Z,6.90
2018-01-12T13:49:21.201Z,6.80
2018-01-12T13:51:47.523Z,6.70
2018-01-12T13:54:13.915Z,6.50
2018-01-12T13:56:41.058Z,6.40
2018-01-12T13:59:08.258Z,6.30
2018-01-12T14:01:34.604Z,6.30
2018-01-12T14:04:00.944Z,6.70
2018-01-12T14:06:27.338Z,7.30
2018-01-12T14:08:53.659Z,8.20
2018-01-12T14:11:19.992Z,8.60
2018-01-12T14:13:46.325Z,8.70
2018-01-12T14:16:12.658Z,8.40
2018-01-12T14:18:40.035Z,8.40
2018-01-12T14:21:06.482Z,8.20
2018-01-12T14:23:32.811Z,7.80
2018-01-12T14:25:59.150Z,7.70
2018-01-12T14:28:26.995Z,6.90
2018-01-12T14:30:53.334Z,6.90
2018-01-12T14:33:19.706Z,7.20
2018-01-12T14:35:46.770Z,8.20
2018-01-12T14:38:13.118Z,8.10
2018-01-12T14:40:39.455Z,8.80
2018-01-12T14:43:05.790Z,9.10
2018-01-12T14:45:32.136Z,9.40
2018-01-12T14:47:58.484Z,9.70
2018-01-12T14:50:24.823Z,9.60
2018-01-12T14:52:51.958Z,9.10
2018-01-12T14:55:19.034Z,8.90
2018-01-12T14:57:46.098Z,8.70
2018-01-12T15:00:12.743Z,8.70
2018-01-12T15:02:39.611Z,8.70
2018-01-12T15:05:06.007Z,8.40
2018-01-12T15:07:32.342Z,8.20
2018-01-12T15:09:58.678Z,7.70
2018-01-12T15:12:25.038Z,7.20
2018-01-12T15:14:51.377Z,6.70
2018-01-12T15:17:17.723Z,6.40
2018-01-12T15:19:44.078Z,6.00
2018-01-12T15:22:11.166Z,5.40
2018-01-12T15:24:37.495Z,5.30
2018-01-12T15:27:03.823Z,5.10
2018-01-12T15:29:30.170Z,4.80
2018-01-12T15:31:56.503Z,4.60
2018-01-12T15:34:22.845Z,4.50
2018-01-12T15:36:49.165Z,4.40
2018-01-12T15:39:15.515Z,4.20
2018-01-12T15:41:41.889Z,4.10
2018-01-12T15:44:08.267Z,4.00
2018-01-12T15:46:34.622Z,3.90
2018-01-12T15:49:00.974Z,3.80
2018-01-12T15:51:28.138Z,3.70
2018-01-12T15:53:54.494Z,3.60
2018-01-12T15:56:20.833Z,3.70
2018-01-12T15:58:47.185Z,3.80
2018-01-12T16:01:13.507Z,3.70
2018-01-12T16:03:39.822Z,3.80
2018-01-12T16:06:06.178Z,3.80
2018-01-12T16:08:32.512Z,3.90
2018-01-12T16:10:58.880Z,3.80
2018-01-12T16:13:25.202Z,3.90
2018-01-12T16:15:52.266Z,3.90
2018-01-12T16:18:18.594Z,3.90
2018-01-12T16:20:44.940Z,4.00
2018-01-12T16:23:11.302Z,4.00
2018-01-12T16:25:37.621Z,4.00
2018-01-12T16:28:03.973Z,4.00
2018-01-12T16:30:31.318Z,4.00
2018-01-12T16:32:57.650Z,4.10
2018-01-12T16:35:23.970Z,4.10
2018-01-12T16:37:50.314Z,4.10
2018-01-12T16:40:16.691Z,4.10
2018-01-12T16:42:43.016Z,4.10
2018-01-12T16:45:10.093Z,4.20
2018-01-12T16:47:36.450Z,4.10
2018-01-12T16:50:02.779Z,4.10
2018-01-12T16:52:29.105Z,4.10
2018-01-12T16:54:55.504Z,4.10
2018-01-12T16:57:21.910Z,4.20
2018-01-12T16:59:48.987Z,4.20
2018-01-12T17:02:15.335Z,4.20
2018-01-12T17:04:41.694Z,4.20
2018-01-12T17:07:08.043Z,4.20
2018-01-12T17:09:34.370Z,4.20
2018-01-12T17:12:00.703Z,4.20
2018-01-12T17:14:27.042Z,4.30
2018-01-12T17:16:54.787Z,4.20
2018-01-12T17:19:21.901Z,4.30
2018-01-12T17:21:48.797Z,4.20
2018-01-12T17:24:15.899Z,4.10
2018-01-12T17:26:42.239Z,4.10
2018-01-12T17:29:09.307Z,4.00
2018-01-12T17:31:37.395Z,4.00
2018-01-12T17:34:04.515Z,4.00
2018-01-12T17:36:30.854Z,4.00
2018-01-12T17:38:57.187Z,4.00
2018-01-12T17:41:24.284Z,4.10
2018-01-12T17:43:50.631Z,4.10
2018-01-12T17:46:16.973Z,3.90
2018-01-12T17:48:43.351Z,3.90
2018-01-12T17:51:09.732Z,3.80
2018-01-12T17:53:36.094Z,3.70
2018-01-12T17:56:03.227Z,3.70
2018-01-12T17:58:30.364Z,3.60
2018-01-12T18:00:57.371Z,3.60
2018-01-12T18:03:23.734Z,3.50
2018-01-12T18:05:50.098Z,3.70
2018-01-12T18:08:16.488Z,3.70
2018-01-12T18:10:42.870Z,3.70
2018-01-12T18:13:09.971Z,3.60
2018-01-12T18:15:36.334Z,3.60
2018-01-12T18:18:02.670Z,3.80
2018-01-12T18:20:29.702Z,3.80
2018-01-12T18:22:56.051Z,3.60
2018-01-12T18:25:22.478Z,3.60
2018-01-12T18:27:48.850Z,3.60
2018-01-12T18:30:15.970Z,3.50
2018-01-12T18:32:42.294Z,3.50
2018-01-12T18:35:08.642Z,3.60
2018-01-12T18:37:34.970Z,3.70
2018-01-12T18:40:01.318Z,3.60
2018-01-12T18:42:28.401Z,3.60
2018-01-12T18:44:54.758Z,3.60
2018-01-12T18:47:21.090Z,3.60
2018-01-12T18:49:47.450Z,3.60
2018-01-12T18:52:14.514Z,3.50
2018-01-12T18:54:41.612Z,3.60
2018-01-12T18:57:07.978Z,3.60
2018-01-12T18:59:35.052Z,3.70
2018-01-12T19:02:01.382Z,3.60
2018-01-12T19:04:28.462Z,3.60
2018-01-12T19:06:54.822Z,3.60
2018-01-12T19:09:22.637Z,3.50
2018-01-12T19:11:48.971Z,3.50
2018-01-12T19:14:15.302Z,3.50
2018-01-12T19:16:41.642Z,3.40
2018-01-12T19:19:08.201Z,3.30
2018-01-12T19:21:34.726Z,3.30
2018-01-12T19:24:01.326Z,3.30
2018-01-12T19:26:28.403Z,3.20
2018-01-12T19:28:54.730Z,3.20
2018-01-12T19:31:22.098Z,3.30
2018-01-12T19:33:48.431Z,3.30
2018-01-12T19:36:14.754Z,3.30
2018-01-12T19:38:41.073Z,3.20
2018-01-12T19:41:07.430Z,3.40
2018-01-12T19:43:33.816Z,3.40
2018-01-12T19:48:34.818Z,3.20
2018-01-12T19:51:01.163Z,3.20
2018-01-12T19:53:27.514Z,3.20
2018-01-12T19:55:53.885Z,3.20
2018-01-12T19:58:20.350Z,3.10
2018-01-12T20:00:46.730Z,3.10
2018-01-12T20:03:13.799Z,3.30
2018-01-12T20:05:41.247Z,3.30
2018-01-12T20:08:07.574Z,3.40
2018-01-12T20:10:33.954Z,3.30
2018-01-12T20:13:00.914Z,3.30
2018-01-12T20:15:27.289Z,3.30
2018-01-12T20:17:53.619Z,3.30
2018-01-12T20:20:21.166Z,3.30
2018-01-12T20:22:48.231Z,3.30
2018-01-12T20:25:14.579Z,3.30
2018-01-12T20:27:40.900Z,3.40
2018-01-12T20:30:07.292Z,3.50
2018-01-12T20:32:34.409Z,3.50
2018-01-12T20:35:00.712Z,3.50
2018-01-12T20:37:27.050Z,3.50
2018-01-12T20:39:53.374Z,3.40
2018-01-12T20:42:20.446Z,3.30
2018-01-12T20:44:46.790Z,3.20
2018-01-12T20:47:13.109Z,3.10
2018-01-12T20:49:39.466Z,3.30
2018-01-12T20:52:05.791Z,3.30
2018-01-12T20:54:32.147Z,3.30
2018-01-12T20:56:59.252Z,3.30
2018-01-12T20:59:25.640Z,3.20
2018-01-12T21:01:52.722Z,3.10
2018-01-12T21:04:19.057Z,3.10
2018-01-12T21:06:45.394Z,3.10
2018-01-12T21:09:11.754Z,3.20
2018-01-12T21:11:38.070Z,3.30
2018-01-12T21:14:04.434Z,3.20
2018-01-12T21:16:31.526Z,3.20
2018-01-12T21:18:57.859Z,3.10
2018-01-12T21:21:24.185Z,3.20
2018-01-12T21:23:50.506Z,3.20
2018-01-12T21:26:16.887Z,3.30
2018-01-12T21:28:43.223Z,3.40
2018-01-12T21:31:10.307Z,3.40
2018-01-12T21:33:36.622Z,3.40
2018-01-12T21:36:02.991Z,3.40
2018-01-12T21:38:29.347Z,3.30
2018-01-12T21:40:56.418Z,3.30
2018-01-12T21:43:23.490Z,3.30
2018-01-12T21:45:49.858Z,3.30
2018-01-12T21:48:16.186Z,3.30
2018-01-12T21:50:42.531Z,3.10
2018-01-12T21:53:08.881Z,3.20
2018-01-12T21:55:35.214Z,3.30
2018-01-12T21:58:02.290Z,3.10
2018-01-12T22:00:28.632Z,3.10
2018-01-12T22:02:54.958Z,3.20
2018-01-12T22:05:21.306Z,3.30
2018-01-12T22:07:47.630Z,3.40
2018-01-12T22:10:14.007Z,3.40
2018-01-12T22:12:40.336Z,3.40
2018-01-12T22:15:06.867Z,3.40
2018-01-12T22:17:33.182Z,3.40
2018-01-12T22:19:59.586Z,3.40
2018-01-12T22:22:25.919Z,3.40
2018-01-12T22:24:52.251Z,3.30
2018-01-12T22:27:18.580Z,3.30
2018-01-12T22:29:44.919Z,3.30
2018-01-12T22:32:11.258Z,3.20
2018-01-12T22:34:37.595Z,3.20
2018-01-12T22:37:03.914Z,3.20
2018-01-12T22:39:30.244Z,3.10
2018-01-12T22:41:56.662Z,3.10
2018-01-12T22:44:22.995Z,3.20
2018-01-12T22:46:49.353Z,3.20
2018-01-12T22:49:15.682Z,3.20
2018-01-12T22:51:42.044Z,3.10
2018-01-12T22:54:09.853Z,3.10
2018-01-12T22:56:36.198Z,3.10
2018-01-12T22:59:02.527Z,3.20
2018-01-12T23:01:28.902Z,3.10
2018-01-12T23:03:55.234Z,3.10
2018-01-12T23:06:22.610Z,3.00
2018-01-12T23:08:49.667Z,3.10
2018-01-12T23:11:16.033Z,3.00
2018-01-12T23:13:42.370Z,3.10
2018-01-12T23:16:08.706Z,3.20
2018-01-12T23:18:35.027Z,3.20
2018-01-12T23:21:01.363Z,3.30
2018-01-12T23:23:27.702Z,3.40
2018-01-12T23:25:54.042Z,3.30
2018-01-12T23:28:20.383Z,3.30
2018-01-12T23:30:46.778Z,3.30
2018-01-12T23:33:13.118Z,3.20
2018-01-12T23:35:39.462Z,3.10
2018-01-12T23:38:05.844Z,3.00
2018-01-12T23:40:32.202Z,3.00
2018-01-12T23:42:59.236Z,3.00
2018-01-12T23:45:25.570Z,3.10
2018-01-12T23:47:51.921Z,3.10
2018-01-12T23:50:18.246Z,3.10
2018-01-12T23:52:44.602Z,3.20
2018-01-12T23:55:10.926Z,3.20
2018-01-12T23:57:37.282Z,3.20
